In Rescue
 
Open Full Screen Window  High Contrast Mode
Wind Gusting 00 knots
05
March 19, 2019 7:18 PM EDT
Weather Information
Wind Direction
  230 °
Wind Speed
  05 kt (6 mph)
Wind Gust
  00 kt (0 mph)
Altimeter
30.28 in
Visibility
10 SM
Temperature
08° C
46° F
Dewpoint
-05° C
23° F
Humidity
40%
Sky Condition
Scattered @ 6,000 ft
VFR

METAR KTEW 192318Z AUTO 23005KT 10SM SCT060 08/M05 A3028 RMK AO2 T00751055

FAA Disclaimer: The data displayed is for advisory purposes only and is not to be used for flight planning or operations.